sensor_id;sensor_type;location;lat;lon;timestamp;P1;durP1;ratioP1;P2;durP2;ratioP2
84984;SDS011;75299;50.018;20.014;2024-01-16T00:02:21;8.60;;;5.10;;
84984;SDS011;75299;50.018;20.014;2024-01-16T00:05:39;8.65;;;5.53;;
84984;SDS011;75299;50.018;20.014;2024-01-16T00:08:57;7.60;;;4.60;;
84984;SDS011;75299;50.018;20.014;2024-01-16T00:12:14;7.83;;;4.80;;
84984;SDS011;75299;50.018;20.014;2024-01-16T00:15:31;8.98;;;4.90;;
84984;SDS011;75299;50.018;20.014;2024-01-16T00:18:49;10.20;;;5.25;;
84984;SDS011;75299;50.018;20.014;2024-01-16T00:22:06;7.78;;;5.15;;
84984;SDS011;75299;50.018;20.014;2024-01-16T00:25:24;7.48;;;5.03;;
84984;SDS011;75299;50.018;20.014;2024-01-16T00:28:41;9.33;;;5.88;;
84984;SDS011;75299;50.018;20.014;2024-01-16T00:31:59;8.50;;;5.33;;
84984;SDS011;75299;50.018;20.014;2024-01-16T00:35:17;10.28;;;5.25;;
84984;SDS011;75299;50.018;20.014;2024-01-16T00:38:35;8.63;;;5.63;;
84984;SDS011;75299;50.018;20.014;2024-01-16T00:41:52;8.60;;;5.25;;
84984;SDS011;75299;50.018;20.014;2024-01-16T00:48:24;9.70;;;5.53;;
84984;SDS011;75299;50.018;20.014;2024-01-16T00:51:41;10.05;;;5.73;;
84984;SDS011;75299;50.018;20.014;2024-01-16T00:54:58;9.43;;;5.85;;
84984;SDS011;75299;50.018;20.014;2024-01-16T00:58:16;9.43;;;5.58;;
84984;SDS011;75299;50.018;20.014;2024-01-16T01:01:34;9.35;;;5.30;;
84984;SDS011;75299;50.018;20.014;2024-01-16T01:04:53;8.45;;;5.55;;
84984;SDS011;75299;50.018;20.014;2024-01-16T01:08:10;8.78;;;6.40;;
84984;SDS011;75299;50.018;20.014;2024-01-16T01:11:28;10.28;;;6.33;;
84984;SDS011;75299;50.018;20.014;2024-01-16T01:14:45;10.30;;;6.38;;
84984;SDS011;75299;50.018;20.014;2024-01-16T01:18:02;9.78;;;6.80;;
84984;SDS011;75299;50.018;20.014;2024-01-16T01:21:20;9.68;;;6.33;;
84984;SDS011;75299;50.018;20.014;2024-01-16T01:24:37;11.75;;;6.85;;
84984;SDS011;75299;50.018;20.014;2024-01-16T01:27:55;10.13;;;6.70;;
84984;SDS011;75299;50.018;20.014;2024-01-16T01:31:12;9.30;;;6.70;;
84984;SDS011;75299;50.018;20.014;2024-01-16T01:34:29;10.48;;;6.75;;
84984;SDS011;75299;50.018;20.014;2024-01-16T01:37:47;13.33;;;6.45;;
84984;SDS011;75299;50.018;20.014;2024-01-16T01:41:05;10.73;;;6.90;;
84984;SDS011;75299;50.018;20.014;2024-01-16T01:44:23;9.70;;;6.30;;
84984;SDS011;75299;50.018;20.014;2024-01-16T01:47:41;13.38;;;7.00;;
84984;SDS011;75299;50.018;20.014;2024-01-16T01:50:59;10.18;;;6.53;;
84984;SDS011;75299;50.018;20.014;2024-01-16T01:54:16;9.65;;;7.15;;
84984;SDS011;75299;50.018;20.014;2024-01-16T01:57:36;10.10;;;6.98;;
84984;SDS011;75299;50.018;20.014;2024-01-16T02:00:54;11.38;;;7.03;;
84984;SDS011;75299;50.018;20.014;2024-01-16T02:04:13;11.88;;;6.93;;
84984;SDS011;75299;50.018;20.014;2024-01-16T02:07:31;10.28;;;7.05;;
84984;SDS011;75299;50.018;20.014;2024-01-16T02:10:50;12.95;;;6.70;;
84984;SDS011;75299;50.018;20.014;2024-01-16T02:14:07;11.15;;;7.05;;
84984;SDS011;75299;50.018;20.014;2024-01-16T02:17:25;11.88;;;7.55;;
84984;SDS011;75299;50.018;20.014;2024-01-16T02:20:42;12.35;;;6.88;;
84984;SDS011;75299;50.018;20.014;2024-01-16T02:24:00;10.83;;;6.98;;
84984;SDS011;75299;50.018;20.014;2024-01-16T02:27:17;12.60;;;7.23;;
84984;SDS011;75299;50.018;20.014;2024-01-16T02:30:34;11.15;;;7.30;;
84984;SDS011;75299;50.018;20.014;2024-01-16T02:33:52;12.25;;;7.30;;
84984;SDS011;75299;50.018;20.014;2024-01-16T02:37:10;10.63;;;7.13;;
84984;SDS011;75299;50.018;20.014;2024-01-16T02:40:27;10.55;;;6.60;;
84984;SDS011;75299;50.018;20.014;2024-01-16T02:43:44;10.73;;;6.98;;
84984;SDS011;75299;50.018;20.014;2024-01-16T02:47:02;9.93;;;6.73;;
84984;SDS011;75299;50.018;20.014;2024-01-16T02:50:19;11.15;;;7.25;;
84984;SDS011;75299;50.018;20.014;2024-01-16T02:53:37;10.48;;;6.40;;
84984;SDS011;75299;50.018;20.014;2024-01-16T02:56:54;11.80;;;6.95;;
84984;SDS011;75299;50.018;20.014;2024-01-16T03:00:12;10.13;;;6.73;;
84984;SDS011;75299;50.018;20.014;2024-01-16T03:03:30;9.85;;;6.10;;
84984;SDS011;75299;50.018;20.014;2024-01-16T03:06:48;11.28;;;6.65;;
84984;SDS011;75299;50.018;20.014;2024-01-16T03:10:06;11.00;;;6.28;;
84984;SDS011;75299;50.018;20.014;2024-01-16T03:13:23;9.58;;;6.13;;
84984;SDS011;75299;50.018;20.014;2024-01-16T03:16:41;12.15;;;6.18;;
84984;SDS011;75299;50.018;20.014;2024-01-16T03:19:58;8.75;;;5.95;;
84984;SDS011;75299;50.018;20.014;2024-01-16T03:23:17;8.45;;;5.70;;
84984;SDS011;75299;50.018;20.014;2024-01-16T03:26:34;8.95;;;6.00;;
84984;SDS011;75299;50.018;20.014;2024-01-16T03:29:51;10.95;;;5.90;;
84984;SDS011;75299;50.018;20.014;2024-01-16T03:33:09;10.70;;;6.28;;
84984;SDS011;75299;50.018;20.014;2024-01-16T03:36:27;8.95;;;5.40;;
84984;SDS011;75299;50.018;20.014;2024-01-16T03:39:44;8.18;;;5.43;;
84984;SDS011;75299;50.018;20.014;2024-01-16T03:43:02;6.28;;;4.35;;
84984;SDS011;75299;50.018;20.014;2024-01-16T03:46:20;8.25;;;4.65;;
84984;SDS011;75299;50.018;20.014;2024-01-16T03:49:37;11.33;;;4.75;;
84984;SDS011;75299;50.018;20.014;2024-01-16T03:52:55;7.38;;;5.00;;
84984;SDS011;75299;50.018;20.014;2024-01-16T03:56:12;6.93;;;4.10;;
84984;SDS011;75299;50.018;20.014;2024-01-16T03:59:30;7.60;;;4.85;;
84984;SDS011;75299;50.018;20.014;2024-01-16T04:02:49;5.28;;;3.88;;
84984;SDS011;75299;50.018;20.014;2024-01-16T04:06:15;7.38;;;4.18;;
84984;SDS011;75299;50.018;20.014;2024-01-16T04:09:33;6.70;;;4.20;;
84984;SDS011;75299;50.018;20.014;2024-01-16T04:12:50;5.00;;;4.00;;
84984;SDS011;75299;50.018;20.014;2024-01-16T04:16:07;7.08;;;3.90;;
84984;SDS011;75299;50.018;20.014;2024-01-16T04:19:24;4.73;;;3.93;;
84984;SDS011;75299;50.018;20.014;2024-01-16T04:22:42;5.78;;;4.08;;
84984;SDS011;75299;50.018;20.014;2024-01-16T04:25:59;7.18;;;4.53;;
84984;SDS011;75299;50.018;20.014;2024-01-16T04:29:17;7.10;;;4.35;;
84984;SDS011;75299;50.018;20.014;2024-01-16T04:32:35;8.48;;;4.80;;
84984;SDS011;75299;50.018;20.014;2024-01-16T04:35:52;6.90;;;4.75;;
84984;SDS011;75299;50.018;20.014;2024-01-16T04:39:09;5.83;;;3.80;;
84984;SDS011;75299;50.018;20.014;2024-01-16T04:42:26;6.93;;;4.10;;
84984;SDS011;75299;50.018;20.014;2024-01-16T04:45:44;6.00;;;3.93;;
84984;SDS011;75299;50.018;20.014;2024-01-16T04:49:01;5.90;;;4.08;;
84984;SDS011;75299;50.018;20.014;2024-01-16T04:52:18;6.98;;;3.95;;
84984;SDS011;75299;50.018;20.014;2024-01-16T04:55:36;6.80;;;4.05;;
84984;SDS011;75299;50.018;20.014;2024-01-16T04:58:53;7.00;;;3.75;;
84984;SDS011;75299;50.018;20.014;2024-01-16T05:02:10;5.83;;;4.20;;
84984;SDS011;75299;50.018;20.014;2024-01-16T05:05:27;5.68;;;4.08;;
84984;SDS011;75299;50.018;20.014;2024-01-16T05:08:44;6.33;;;4.20;;
84984;SDS011;75299;50.018;20.014;2024-01-16T05:12:02;5.50;;;3.95;;
84984;SDS011;75299;50.018;20.014;2024-01-16T05:15:20;5.75;;;4.03;;
84984;SDS011;75299;50.018;20.014;2024-01-16T05:18:38;7.03;;;4.35;;
84984;SDS011;75299;50.018;20.014;2024-01-16T05:21:57;6.85;;;4.38;;
84984;SDS011;75299;50.018;20.014;2024-01-16T05:25:15;6.28;;;4.25;;
84984;SDS011;75299;50.018;20.014;2024-01-16T05:28:33;7.60;;;5.10;;
84984;SDS011;75299;50.018;20.014;2024-01-16T05:31:51;7.78;;;4.90;;
84984;SDS011;75299;50.018;20.014;2024-01-16T05:35:08;7.25;;;4.43;;
84984;SDS011;75299;50.018;20.014;2024-01-16T05:38:26;8.45;;;4.95;;
84984;SDS011;75299;50.018;20.014;2024-01-16T05:41:43;6.13;;;4.30;;
84984;SDS011;75299;50.018;20.014;2024-01-16T05:45:01;7.08;;;4.83;;
84984;SDS011;75299;50.018;20.014;2024-01-16T05:48:19;9.15;;;5.20;;
84984;SDS011;75299;50.018;20.014;2024-01-16T05:51:37;8.18;;;4.70;;
84984;SDS011;75299;50.018;20.014;2024-01-16T05:54:53;6.93;;;4.78;;
84984;SDS011;75299;50.018;20.014;2024-01-16T05:58:11;7.05;;;5.28;;
84984;SDS011;75299;50.018;20.014;2024-01-16T06:01:28;12.88;;;5.73;;
84984;SDS011;75299;50.018;20.014;2024-01-16T06:04:46;6.90;;;4.75;;
84984;SDS011;75299;50.018;20.014;2024-01-16T06:08:04;12.70;;;7.53;;
84984;SDS011;75299;50.018;20.014;2024-01-16T06:11:30;8.15;;;5.68;;
84984;SDS011;75299;50.018;20.014;2024-01-16T06:14:49;8.75;;;5.13;;
84984;SDS011;75299;50.018;20.014;2024-01-16T06:18:06;10.85;;;5.40;;
84984;SDS011;75299;50.018;20.014;2024-01-16T06:21:24;6.50;;;4.60;;
84984;SDS011;75299;50.018;20.014;2024-01-16T06:24:41;6.50;;;4.98;;
84984;SDS011;75299;50.018;20.014;2024-01-16T06:27:59;7.03;;;4.88;;
84984;SDS011;75299;50.018;20.014;2024-01-16T06:31:17;9.58;;;5.10;;
84984;SDS011;75299;50.018;20.014;2024-01-16T06:34:34;7.90;;;5.20;;
84984;SDS011;75299;50.018;20.014;2024-01-16T06:37:51;6.88;;;4.93;;
84984;SDS011;75299;50.018;20.014;2024-01-16T06:44:24;9.13;;;5.73;;
84984;SDS011;75299;50.018;20.014;2024-01-16T06:47:41;8.45;;;5.00;;
84984;SDS011;75299;50.018;20.014;2024-01-16T06:50:58;6.68;;;5.08;;
84984;SDS011;75299;50.018;20.014;2024-01-16T06:54:16;7.43;;;4.90;;
84984;SDS011;75299;50.018;20.014;2024-01-16T06:57:33;8.13;;;4.95;;
84984;SDS011;75299;50.018;20.014;2024-01-16T07:00:50;8.53;;;5.58;;
84984;SDS011;75299;50.018;20.014;2024-01-16T07:04:09;8.53;;;5.28;;
84984;SDS011;75299;50.018;20.014;2024-01-16T07:07:26;9.10;;;5.73;;
84984;SDS011;75299;50.018;20.014;2024-01-16T07:10:44;11.43;;;6.73;;
84984;SDS011;75299;50.018;20.014;2024-01-16T07:14:01;9.30;;;6.40;;
84984;SDS011;75299;50.018;20.014;2024-01-16T07:17:20;11.23;;;6.18;;
84984;SDS011;75299;50.018;20.014;2024-01-16T07:20:37;7.98;;;5.98;;
84984;SDS011;75299;50.018;20.014;2024-01-16T07:23:55;10.03;;;5.55;;
84984;SDS011;75299;50.018;20.014;2024-01-16T07:27:12;7.93;;;5.58;;
84984;SDS011;75299;50.018;20.014;2024-01-16T07:30:30;9.93;;;6.15;;
84984;SDS011;75299;50.018;20.014;2024-01-16T07:33:48;10.40;;;6.03;;
84984;SDS011;75299;50.018;20.014;2024-01-16T07:37:06;9.98;;;5.75;;
84984;SDS011;75299;50.018;20.014;2024-01-16T07:40:23;12.45;;;5.78;;
84984;SDS011;75299;50.018;20.014;2024-01-16T07:43:41;10.53;;;6.23;;
84984;SDS011;75299;50.018;20.014;2024-01-16T07:46:58;12.20;;;6.85;;
84984;SDS011;75299;50.018;20.014;2024-01-16T07:50:16;13.43;;;7.53;;
84984;SDS011;75299;50.018;20.014;2024-01-16T07:53:33;12.45;;;7.03;;
84984;SDS011;75299;50.018;20.014;2024-01-16T07:56:51;9.75;;;6.20;;
84984;SDS011;75299;50.018;20.014;2024-01-16T08:00:09;9.63;;;5.90;;
84984;SDS011;75299;50.018;20.014;2024-01-16T08:03:28;12.05;;;6.78;;
84984;SDS011;75299;50.018;20.014;2024-01-16T08:06:47;11.35;;;6.95;;
84984;SDS011;75299;50.018;20.014;2024-01-16T08:10:06;13.68;;;7.00;;
84984;SDS011;75299;50.018;20.014;2024-01-16T08:13:26;13.20;;;6.20;;
84984;SDS011;75299;50.018;20.014;2024-01-16T08:16:44;10.95;;;6.03;;
84984;SDS011;75299;50.018;20.014;2024-01-16T08:20:01;10.93;;;6.20;;
84984;SDS011;75299;50.018;20.014;2024-01-16T08:23:20;12.28;;;6.58;;
84984;SDS011;75299;50.018;20.014;2024-01-16T08:26:37;11.25;;;6.43;;
84984;SDS011;75299;50.018;20.014;2024-01-16T08:29:55;9.13;;;5.73;;
84984;SDS011;75299;50.018;20.014;2024-01-16T08:33:12;13.13;;;6.33;;
84984;SDS011;75299;50.018;20.014;2024-01-16T08:36:31;15.80;;;7.03;;
84984;SDS011;75299;50.018;20.014;2024-01-16T08:39:49;11.30;;;5.83;;
84984;SDS011;75299;50.018;20.014;2024-01-16T08:43:07;9.78;;;5.20;;
84984;SDS011;75299;50.018;20.014;2024-01-16T08:46:24;10.53;;;5.08;;
84984;SDS011;75299;50.018;20.014;2024-01-16T08:49:41;11.15;;;5.20;;
84984;SDS011;75299;50.018;20.014;2024-01-16T08:52:59;9.58;;;4.90;;
84984;SDS011;75299;50.018;20.014;2024-01-16T08:56:16;12.20;;;5.38;;
84984;SDS011;75299;50.018;20.014;2024-01-16T08:59:34;12.55;;;6.13;;
84984;SDS011;75299;50.018;20.014;2024-01-16T09:02:51;10.73;;;5.65;;
84984;SDS011;75299;50.018;20.014;2024-01-16T09:06:12;13.58;;;5.93;;
84984;SDS011;75299;50.018;20.014;2024-01-16T09:09:30;11.50;;;5.53;;
84984;SDS011;75299;50.018;20.014;2024-01-16T09:12:49;10.25;;;5.10;;
84984;SDS011;75299;50.018;20.014;2024-01-16T09:16:07;12.00;;;5.85;;
84984;SDS011;75299;50.018;20.014;2024-01-16T09:19:25;10.45;;;5.03;;
84984;SDS011;75299;50.018;20.014;2024-01-16T09:22:42;11.20;;;4.98;;
84984;SDS011;75299;50.018;20.014;2024-01-16T09:26:00;12.10;;;5.38;;
84984;SDS011;75299;50.018;20.014;2024-01-16T09:29:18;9.50;;;5.43;;
84984;SDS011;75299;50.018;20.014;2024-01-16T09:32:35;11.15;;;5.33;;
84984;SDS011;75299;50.018;20.014;2024-01-16T09:35:53;10.35;;;4.75;;
84984;SDS011;75299;50.018;20.014;2024-01-16T09:39:11;8.68;;;5.03;;
84984;SDS011;75299;50.018;20.014;2024-01-16T09:42:28;7.58;;;4.40;;
84984;SDS011;75299;50.018;20.014;2024-01-16T09:45:45;10.03;;;4.53;;
84984;SDS011;75299;50.018;20.014;2024-01-16T09:49:06;8.25;;;4.50;;
84984;SDS011;75299;50.018;20.014;2024-01-16T09:52:24;7.65;;;4.43;;
84984;SDS011;75299;50.018;20.014;2024-01-16T09:55:42;8.43;;;4.15;;
84984;SDS011;75299;50.018;20.014;2024-01-16T09:59:01;9.75;;;4.90;;
84984;SDS011;75299;50.018;20.014;2024-01-16T10:02:20;7.93;;;3.88;;
84984;SDS011;75299;50.018;20.014;2024-01-16T10:05:37;9.05;;;4.03;;
84984;SDS011;75299;50.018;20.014;2024-01-16T10:08:56;9.13;;;4.28;;
84984;SDS011;75299;50.018;20.014;2024-01-16T10:12:14;7.05;;;3.80;;
84984;SDS011;75299;50.018;20.014;2024-01-16T10:15:31;6.93;;;3.23;;
84984;SDS011;75299;50.018;20.014;2024-01-16T10:18:49;6.45;;;3.38;;
84984;SDS011;75299;50.018;20.014;2024-01-16T10:22:09;5.25;;;2.80;;
84984;SDS011;75299;50.018;20.014;2024-01-16T10:25:29;7.45;;;3.53;;
84984;SDS011;75299;50.018;20.014;2024-01-16T10:28:47;5.93;;;2.88;;
84984;SDS011;75299;50.018;20.014;2024-01-16T10:32:06;8.75;;;3.95;;
84984;SDS011;75299;50.018;20.014;2024-01-16T10:35:25;6.60;;;3.93;;
84984;SDS011;75299;50.018;20.014;2024-01-16T10:38:43;8.60;;;3.85;;
84984;SDS011;75299;50.018;20.014;2024-01-16T10:42:03;7.08;;;3.58;;
84984;SDS011;75299;50.018;20.014;2024-01-16T10:45:20;8.70;;;3.65;;
84984;SDS011;75299;50.018;20.014;2024-01-16T10:48:38;8.15;;;3.90;;
84984;SDS011;75299;50.018;20.014;2024-01-16T10:51:57;10.30;;;4.10;;
84984;SDS011;75299;50.018;20.014;2024-01-16T10:55:15;9.23;;;5.10;;
84984;SDS011;75299;50.018;20.014;2024-01-16T10:58:36;17.15;;;7.18;;
84984;SDS011;75299;50.018;20.014;2024-01-16T11:01:56;11.88;;;4.40;;
84984;SDS011;75299;50.018;20.014;2024-01-16T11:05:15;11.18;;;4.65;;
84984;SDS011;75299;50.018;20.014;2024-01-16T11:08:35;9.08;;;4.48;;
84984;SDS011;75299;50.018;20.014;2024-01-16T11:11:52;9.13;;;4.43;;
84984;SDS011;75299;50.018;20.014;2024-01-16T11:15:11;8.50;;;4.40;;
84984;SDS011;75299;50.018;20.014;2024-01-16T11:18:30;6.85;;;4.00;;
84984;SDS011;75299;50.018;20.014;2024-01-16T11:21:49;6.65;;;3.95;;
84984;SDS011;75299;50.018;20.014;2024-01-16T11:25:09;7.83;;;4.15;;
84984;SDS011;75299;50.018;20.014;2024-01-16T11:28:29;7.50;;;4.30;;
84984;SDS011;75299;50.018;20.014;2024-01-16T11:31:46;7.23;;;3.50;;
84984;SDS011;75299;50.018;20.014;2024-01-16T11:35:07;7.70;;;3.48;;
84984;SDS011;75299;50.018;20.014;2024-01-16T11:38:25;7.13;;;3.30;;
84984;SDS011;75299;50.018;20.014;2024-01-16T11:41:53;9.70;;;3.15;;
84984;SDS011;75299;50.018;20.014;2024-01-16T11:49:02;5.63;;;3.30;;
84984;SDS011;75299;50.018;20.014;2024-01-16T11:55:58;7.23;;;3.48;;
84984;SDS011;75299;50.018;20.014;2024-01-16T11:59:53;6.80;;;3.70;;
84984;SDS011;75299;50.018;20.014;2024-01-16T12:03:18;5.83;;;3.50;;
84984;SDS011;75299;50.018;20.014;2024-01-16T12:06:38;8.68;;;3.70;;
84984;SDS011;75299;50.018;20.014;2024-01-16T12:10:00;7.48;;;3.45;;
84984;SDS011;75299;50.018;20.014;2024-01-16T12:13:18;7.20;;;3.78;;
84984;SDS011;75299;50.018;20.014;2024-01-16T12:16:36;9.68;;;3.80;;
84984;SDS011;75299;50.018;20.014;2024-01-16T12:19:53;9.08;;;4.43;;
84984;SDS011;75299;50.018;20.014;2024-01-16T12:23:10;8.98;;;4.48;;
84984;SDS011;75299;50.018;20.014;2024-01-16T12:26:30;10.40;;;4.55;;
84984;SDS011;75299;50.018;20.014;2024-01-16T12:29:47;8.80;;;4.93;;
84984;SDS011;75299;50.018;20.014;2024-01-16T12:33:12;9.45;;;4.63;;
84984;SDS011;75299;50.018;20.014;2024-01-16T12:36:30;12.20;;;4.73;;
84984;SDS011;75299;50.018;20.014;2024-01-16T12:39:47;12.33;;;5.20;;
84984;SDS011;75299;50.018;20.014;2024-01-16T12:43:06;13.45;;;5.03;;
84984;SDS011;75299;50.018;20.014;2024-01-16T12:46:23;8.03;;;4.80;;
84984;SDS011;75299;50.018;20.014;2024-01-16T12:49:44;9.83;;;4.83;;
84984;SDS011;75299;50.018;20.014;2024-01-16T12:53:02;9.03;;;4.70;;
84984;SDS011;75299;50.018;20.014;2024-01-16T12:56:21;8.23;;;4.43;;
84984;SDS011;75299;50.018;20.014;2024-01-16T12:59:39;6.08;;;3.48;;
84984;SDS011;75299;50.018;20.014;2024-01-16T13:02:57;8.90;;;3.40;;
84984;SDS011;75299;50.018;20.014;2024-01-16T13:06:17;5.35;;;2.95;;
84984;SDS011;75299;50.018;20.014;2024-01-16T13:09:36;4.10;;;2.40;;
84984;SDS011;75299;50.018;20.014;2024-01-16T13:12:53;7.03;;;2.80;;
84984;SDS011;75299;50.018;20.014;2024-01-16T13:16:31;6.13;;;2.80;;
84984;SDS011;75299;50.018;20.014;2024-01-16T13:19:48;4.55;;;2.70;;
84984;SDS011;75299;50.018;20.014;2024-01-16T13:23:06;3.90;;;2.45;;
84984;SDS011;75299;50.018;20.014;2024-01-16T13:26:24;7.55;;;2.88;;
84984;SDS011;75299;50.018;20.014;2024-01-16T13:29:49;6.05;;;2.90;;
84984;SDS011;75299;50.018;20.014;2024-01-16T13:33:06;6.63;;;2.83;;
84984;SDS011;75299;50.018;20.014;2024-01-16T13:36:24;6.28;;;3.43;;
84984;SDS011;75299;50.018;20.014;2024-01-16T13:39:44;11.98;;;3.40;;
84984;SDS011;75299;50.018;20.014;2024-01-16T13:43:01;5.55;;;3.03;;
84984;SDS011;75299;50.018;20.014;2024-01-16T13:46:21;7.43;;;3.78;;
84984;SDS011;75299;50.018;20.014;2024-01-16T13:49:41;8.53;;;3.93;;
84984;SDS011;75299;50.018;20.014;2024-01-16T13:52:59;7.05;;;4.10;;
84984;SDS011;75299;50.018;20.014;2024-01-16T13:56:16;6.58;;;3.80;;
84984;SDS011;75299;50.018;20.014;2024-01-16T13:59:35;9.08;;;4.38;;
84984;SDS011;75299;50.018;20.014;2024-01-16T14:02:54;7.33;;;4.18;;
84984;SDS011;75299;50.018;20.014;2024-01-16T14:06:12;8.15;;;4.28;;
84984;SDS011;75299;50.018;20.014;2024-01-16T14:09:33;8.23;;;4.40;;
84984;SDS011;75299;50.018;20.014;2024-01-16T14:12:52;10.65;;;5.03;;
84984;SDS011;75299;50.018;20.014;2024-01-16T14:16:15;11.08;;;4.48;;
84984;SDS011;75299;50.018;20.014;2024-01-16T14:19:35;9.70;;;4.20;;
84984;SDS011;75299;50.018;20.014;2024-01-16T14:22:53;7.25;;;4.28;;
84984;SDS011;75299;50.018;20.014;2024-01-16T14:26:12;8.40;;;5.38;;
84984;SDS011;75299;50.018;20.014;2024-01-16T14:29:29;10.35;;;6.03;;
84984;SDS011;75299;50.018;20.014;2024-01-16T14:32:48;11.73;;;6.60;;
84984;SDS011;75299;50.018;20.014;2024-01-16T14:36:07;13.45;;;7.15;;
84984;SDS011;75299;50.018;20.014;2024-01-16T14:39:24;17.48;;;7.13;;
84984;SDS011;75299;50.018;20.014;2024-01-16T14:42:43;13.45;;;7.03;;
84984;SDS011;75299;50.018;20.014;2024-01-16T14:46:01;13.23;;;6.95;;
84984;SDS011;75299;50.018;20.014;2024-01-16T14:49:19;12.38;;;6.60;;
84984;SDS011;75299;50.018;20.014;2024-01-16T14:52:38;19.53;;;8.50;;
84984;SDS011;75299;50.018;20.014;2024-01-16T14:55:58;12.08;;;7.25;;
84984;SDS011;75299;50.018;20.014;2024-01-16T14:59:15;11.25;;;6.30;;
84984;SDS011;75299;50.018;20.014;2024-01-16T15:02:33;12.93;;;6.28;;
84984;SDS011;75299;50.018;20.014;2024-01-16T15:05:50;14.68;;;6.78;;
84984;SDS011;75299;50.018;20.014;2024-01-16T15:09:08;26.85;;;14.20;;
84984;SDS011;75299;50.018;20.014;2024-01-16T15:12:25;12.38;;;6.20;;
84984;SDS011;75299;50.018;20.014;2024-01-16T15:15:42;11.38;;;5.68;;
84984;SDS011;75299;50.018;20.014;2024-01-16T15:19:02;10.23;;;5.70;;
84984;SDS011;75299;50.018;20.014;2024-01-16T15:22:19;9.28;;;5.78;;
84984;SDS011;75299;50.018;20.014;2024-01-16T15:25:39;12.23;;;6.55;;
84984;SDS011;75299;50.018;20.014;2024-01-16T15:28:57;13.45;;;6.93;;
84984;SDS011;75299;50.018;20.014;2024-01-16T15:32:16;15.15;;;6.93;;
84984;SDS011;75299;50.018;20.014;2024-01-16T15:35:34;17.45;;;7.63;;
84984;SDS011;75299;50.018;20.014;2024-01-16T15:38:52;13.98;;;7.38;;
84984;SDS011;75299;50.018;20.014;2024-01-16T15:42:10;12.40;;;7.25;;
84984;SDS011;75299;50.018;20.014;2024-01-16T15:45:28;11.08;;;6.63;;
84984;SDS011;75299;50.018;20.014;2024-01-16T15:48:45;14.55;;;7.50;;
84984;SDS011;75299;50.018;20.014;2024-01-16T15:52:05;15.05;;;7.43;;
84984;SDS011;75299;50.018;20.014;2024-01-16T15:55:23;12.30;;;7.08;;
84984;SDS011;75299;50.018;20.014;2024-01-16T15:58:40;11.03;;;6.13;;
84984;SDS011;75299;50.018;20.014;2024-01-16T16:01:58;9.95;;;6.33;;
84984;SDS011;75299;50.018;20.014;2024-01-16T16:05:16;12.10;;;6.43;;
84984;SDS011;75299;50.018;20.014;2024-01-16T16:08:33;9.73;;;6.13;;
84984;SDS011;75299;50.018;20.014;2024-01-16T16:11:53;11.95;;;6.48;;
84984;SDS011;75299;50.018;20.014;2024-01-16T16:15:11;13.13;;;7.23;;
84984;SDS011;75299;50.018;20.014;2024-01-16T16:18:30;16.53;;;7.63;;
84984;SDS011;75299;50.018;20.014;2024-01-16T16:21:47;16.10;;;8.18;;
84984;SDS011;75299;50.018;20.014;2024-01-16T16:25:05;15.15;;;7.90;;
84984;SDS011;75299;50.018;20.014;2024-01-16T16:28:24;13.85;;;7.50;;
84984;SDS011;75299;50.018;20.014;2024-01-16T16:34:55;15.98;;;9.18;;
84984;SDS011;75299;50.018;20.014;2024-01-16T16:38:12;14.38;;;7.38;;
84984;SDS011;75299;50.018;20.014;2024-01-16T16:41:30;11.70;;;6.15;;
84984;SDS011;75299;50.018;20.014;2024-01-16T16:44:49;12.53;;;6.58;;
84984;SDS011;75299;50.018;20.014;2024-01-16T16:48:07;11.18;;;6.55;;
84984;SDS011;75299;50.018;20.014;2024-01-16T16:51:25;12.40;;;6.23;;
84984;SDS011;75299;50.018;20.014;2024-01-16T16:54:45;12.78;;;5.90;;
84984;SDS011;75299;50.018;20.014;2024-01-16T16:58:02;9.18;;;5.13;;
84984;SDS011;75299;50.018;20.014;2024-01-16T17:01:20;9.40;;;5.08;;
84984;SDS011;75299;50.018;20.014;2024-01-16T17:04:38;8.43;;;5.28;;
84984;SDS011;75299;50.018;20.014;2024-01-16T17:07:56;9.53;;;5.20;;
84984;SDS011;75299;50.018;20.014;2024-01-16T17:11:15;10.05;;;4.88;;
84984;SDS011;75299;50.018;20.014;2024-01-16T17:14:34;9.40;;;4.85;;
84984;SDS011;75299;50.018;20.014;2024-01-16T17:17:51;11.03;;;5.63;;
84984;SDS011;75299;50.018;20.014;2024-01-16T17:21:09;9.03;;;4.95;;
84984;SDS011;75299;50.018;20.014;2024-01-16T17:24:26;12.48;;;5.53;;
84984;SDS011;75299;50.018;20.014;2024-01-16T17:27:44;10.50;;;5.40;;
84984;SDS011;75299;50.018;20.014;2024-01-16T17:31:02;9.85;;;5.70;;
84984;SDS011;75299;50.018;20.014;2024-01-16T17:34:20;9.35;;;5.68;;
84984;SDS011;75299;50.018;20.014;2024-01-16T17:37:37;10.40;;;4.90;;
84984;SDS011;75299;50.018;20.014;2024-01-16T17:40:55;8.88;;;5.30;;
84984;SDS011;75299;50.018;20.014;2024-01-16T17:44:12;9.35;;;5.60;;
84984;SDS011;75299;50.018;20.014;2024-01-16T17:47:31;12.80;;;5.88;;
84984;SDS011;75299;50.018;20.014;2024-01-16T17:50:49;15.83;;;6.45;;
84984;SDS011;75299;50.018;20.014;2024-01-16T17:54:06;14.13;;;6.58;;
84984;SDS011;75299;50.018;20.014;2024-01-16T17:57:24;12.33;;;6.50;;
84984;SDS011;75299;50.018;20.014;2024-01-16T18:00:41;11.65;;;6.78;;
84984;SDS011;75299;50.018;20.014;2024-01-16T18:03:58;14.05;;;7.40;;
84984;SDS011;75299;50.018;20.014;2024-01-16T18:07:16;14.93;;;7.00;;
84984;SDS011;75299;50.018;20.014;2024-01-16T18:10:33;18.48;;;6.90;;
84984;SDS011;75299;50.018;20.014;2024-01-16T18:13:51;17.63;;;7.73;;
84984;SDS011;75299;50.018;20.014;2024-01-16T18:17:10;17.20;;;8.23;;
84984;SDS011;75299;50.018;20.014;2024-01-16T18:20:27;13.93;;;7.78;;
84984;SDS011;75299;50.018;20.014;2024-01-16T18:23:44;17.58;;;8.05;;
84984;SDS011;75299;50.018;20.014;2024-01-16T18:27:02;18.20;;;8.45;;
84984;SDS011;75299;50.018;20.014;2024-01-16T18:30:19;13.48;;;8.08;;
84984;SDS011;75299;50.018;20.014;2024-01-16T18:36:52;23.08;;;12.48;;
84984;SDS011;75299;50.018;20.014;2024-01-16T18:40:10;15.40;;;9.05;;
84984;SDS011;75299;50.018;20.014;2024-01-16T18:43:28;15.00;;;8.55;;
84984;SDS011;75299;50.018;20.014;2024-01-16T18:46:45;15.18;;;8.48;;
84984;SDS011;75299;50.018;20.014;2024-01-16T18:50:03;16.90;;;9.48;;
84984;SDS011;75299;50.018;20.014;2024-01-16T18:53:22;16.35;;;8.58;;
84984;SDS011;75299;50.018;20.014;2024-01-16T18:56:40;17.90;;;9.10;;
84984;SDS011;75299;50.018;20.014;2024-01-16T18:59:58;15.90;;;8.68;;
84984;SDS011;75299;50.018;20.014;2024-01-16T19:03:19;16.63;;;9.55;;
84984;SDS011;75299;50.018;20.014;2024-01-16T19:06:36;20.05;;;9.03;;
84984;SDS011;75299;50.018;20.014;2024-01-16T19:09:59;17.70;;;9.23;;
84984;SDS011;75299;50.018;20.014;2024-01-16T19:13:20;17.08;;;9.58;;
84984;SDS011;75299;50.018;20.014;2024-01-16T19:16:37;16.55;;;9.25;;
84984;SDS011;75299;50.018;20.014;2024-01-16T19:19:57;19.40;;;10.08;;
84984;SDS011;75299;50.018;20.014;2024-01-16T19:23:17;22.08;;;12.30;;
84984;SDS011;75299;50.018;20.014;2024-01-16T19:26:35;20.20;;;9.95;;
84984;SDS011;75299;50.018;20.014;2024-01-16T19:29:52;25.43;;;10.40;;
84984;SDS011;75299;50.018;20.014;2024-01-16T19:33:12;19.95;;;10.65;;
84984;SDS011;75299;50.018;20.014;2024-01-16T19:36:30;23.02;;;11.15;;
84984;SDS011;75299;50.018;20.014;2024-01-16T19:39:48;20.95;;;11.50;;
84984;SDS011;75299;50.018;20.014;2024-01-16T19:43:06;19.23;;;10.75;;
84984;SDS011;75299;50.018;20.014;2024-01-16T19:46:23;22.70;;;11.80;;
84984;SDS011;75299;50.018;20.014;2024-01-16T19:49:41;27.05;;;12.58;;